Sunday, July 22, 2018, 12:46 AM EDT
Back to Local

KBOS, Boston Logan International

Location: Boston, MA, United States Lat: 42.367
Local Time: 12:46 AM EDT ( 4:46 GMT) Lon: -71.017
Time Zone: US/Eastern Elev: 19 ft

Show me the last for .
Show Decoded

2018-07-21 23:54 METAR KBOS 220354Z 09009KT 10SM BKN015 OVC250 19/16 A3012 RMK AO2 SLP197
                 T01940161 =
2018-07-21 23:45 METAR KBOS 220345Z 09009KT 10SM BKN015 OVC250 19/16 A3011 RMK AO2 T01940161 =
2018-07-21 22:54 METAR KBOS 220254Z 10008KT 10SM FEW021 SCT065 OVC250 19/16 A3013 RMK AO2 SLP201
                 T01940161 58004 =
2018-07-21 21:54 METAR KBOS 220154Z 10009KT 10SM FEW022 BKN060 OVC250 19/16 A3014 RMK AO2 SLP206
                 T01940156 =
2018-07-21 20:54 METAR KBOS 220054Z 10011KT 10SM FEW022 FEW055 SCT250 OVC300 19/15 A3014 RMK AO2
                 SLP206 T01940150 =
2018-07-21 19:54 METAR KBOS 212354Z 11010KT 10SM SCT026 BKN250 OVC300 20/16 A3014 RMK AO2 SLP206
                 T02000161 10233 20200 53005 =
2018-07-21 18:54 METAR KBOS 212254Z 09012KT 10SM FEW025 BKN250 OVC300 21/16 A3014 RMK AO2 SLP204
                 T02110156 =
2018-07-21 17:54 METAR KBOS 212154Z 09012KT 10SM SCT025 BKN200 BKN250 21/16 A3013 RMK AO2 SLP202
                 T02110156 =
2018-07-21 17:17 METAR KBOS 212117Z 09013KT 10SM BKN020 BKN200 BKN250 22/16 A3014 RMK AO2
                 T02170156 =
2018-07-21 16:54 METAR KBOS 212054Z 08012KT 10SM FEW017 SCT200 BKN250 22/16 A3013 RMK AO2 SLP201
                 T02170161 58010 =
2018-07-21 15:54 METAR KBOS 211954Z 08011KT 10SM FEW017 BKN250 22/17 A3014 RMK AO2 SLP204
                 T02220167 =
2018-07-21 14:54 METAR KBOS 211854Z 09010KT 10SM FEW017 FEW045 FEW250 22/17 A3015 RMK A02 SLP210
                 T02220167 =
2018-07-21 13:54 METAR KBOS 211754Z 07008KT 10SM FEW020 FEW045 SCT250 23/17 A3016 RMK AO2 SLP212
                 T02280167 10228 20206 58009 =
2018-07-21 12:54 METAR KBOS 211654Z 07009KT 10SM FEW035 FEW180 SCT250 23/16 A3017 RMK AO2 SLP217
                 T02280161 =
2018-07-21 11:54 METAR KBOS 211554Z 09009KT 10SM FEW035 FEW180 SCT250 22/15 A3018 RMK AO2 SLP218
                 T02220150 =
2018-07-21 10:54 METAR KBOS 211454Z 07008KT 10SM FEW035 SCT250 22/12 A3018 RMK AO2 SLP220
                 T02220122 51006 =
2018-07-21 09:54 METAR KBOS 211354Z 13007KT 10SM FEW050 SCT250 22/12 A3018 RMK AO2 SLP219
                 T02170117 =
2018-07-21 08:54 METAR KBOS 211254Z 13005KT 10SM FEW050 SCT250 21/13 A3018 RMK AO2 SLP218
                 T02060133 =
2018-07-21 07:54 METAR KBOS 211154Z 07004KT 10SM FEW050 FEW160 SCT250 21/16 A3016 RMK AO2 SLP214
                 T02060156 10206 20172 50001 =
2018-07-21 06:54 METAR KBOS 211054Z 10003KT 10SM FEW050 FEW160 SCT250 19/14 A3017 RMK AO2 SLP214
                 T01890144 =
2018-07-21 05:54 METAR KBOS 210954Z 15003KT 10SM FEW050 FEW160 SCT250 18/14 A3016 RMK AO2 SLP213
                 T01780139 =
2018-07-21 04:54 METAR KBOS 210854Z 22003KT 10SM FEW160 18/14 A3016 RMK AO2 SLP213 T01830139
                 53001 =
2018-07-21 03:54 METAR KBOS 210754Z 17004KT 10SM CLR 18/14 A3016 RMK AO2 SLP212 T01780139 =
2018-07-21 02:54 METAR KBOS 210654Z 17004KT 10SM CLR 18/14 A3016 RMK AO2 SLP212 T01830144 =
2018-07-21 01:54 METAR KBOS 210554Z 18004KT 10SM CLR 19/13 A3016 RMK AO2 SLP212 T01890133 10228
                 20189 56002 =
2018-07-21 00:54 METAR KBOS 210454Z 21004KT 10SM CLR 19/14 A3016 RMK AO2 SLP212 T01940139
                 402610189 =

Support USWX by starting your Amazon purchase here.